Time;durP1;ratioP1;P1;durP2;ratioP2;P2;SDS_P1;SDS_P2;PMS_P1;PMS_P2;Temp;Humidity;BMP_temperature;BMP_pressure;BME280_temperature;BME280_humidity;BME280_pressure;Samples;Min_cycle;Max_cycle;Signal;HPM_P1;HPM_P2
2023/10/30 00:00:58;;;;;;;;;3.75;2.25;;;;;;;;5067068;28;8801;-87
2023/10/30 00:03:25;;;;;;;;;2.00;2.00;;;;;;;;5067971;28;8839;-87
2023/10/30 00:05:52;;;;;;;;;2.75;2.75;;;;;;;;5067422;28;8876;-86
2023/10/30 00:08:20;;;;;;;;;5.75;2.75;;;;;;;;5067706;28;8855;-87
2023/10/30 00:10:47;;;;;;;;;3.25;3.25;;;;;;;;5067895;28;8851;-87
2023/10/30 00:13:14;;;;;;;;;3.75;2.00;;;;;;;;5067726;28;8859;-84
2023/10/30 00:15:41;;;;;;;;;2.00;2.00;;;;;;;;5071289;28;8858;-84
2023/10/30 00:18:10;;;;;;;;;4.75;3.00;;;;;;;;5069602;28;8868;-82
2023/10/30 00:20:37;;;;;;;;;4.75;2.00;;;;;;;;5069021;28;8855;-89
2023/10/30 00:23:07;;;;;;;;;2.50;2.00;;;;;;;;5068395;28;8862;-83
2023/10/30 00:25:34;;;;;;;;;2.50;2.00;;;;;;;;5067836;28;8847;-80
2023/10/30 00:28:02;;;;;;;;;2.00;2.00;;;;;;;;5056898;28;8989;-87
2023/10/30 00:30:29;;;;;;;;;1.75;1.75;;;;;;;;5066518;28;8775;-86
2023/10/30 00:32:56;;;;;;;;;4.00;3.00;;;;;;;;5069234;28;8842;-84
2023/10/30 00:35:25;;;;;;;;;2.00;2.00;;;;;;;;5066547;28;9224;-87
2023/10/30 00:37:53;;;;;;;;;4.00;2.00;;;;;;;;5068791;28;8842;-84
2023/10/30 00:40:20;;;;;;;;;2.00;2.00;;;;;;;;5070195;28;8867;-85
2023/10/30 00:42:47;;;;;;;;;1.25;1.00;;;;;;;;5067320;28;8912;-88
2023/10/30 00:45:17;;;;;;;;;2.00;2.00;;;;;;;;5071108;28;8866;-85
2023/10/30 00:47:44;;;;;;;;;1.00;1.00;;;;;;;;5071532;28;8979;-84
2023/10/30 00:50:11;;;;;;;;;2.00;2.00;;;;;;;;5070051;28;9610;-87
2023/10/30 00:52:40;;;;;;;;;3.00;1.50;;;;;;;;5068563;28;8949;-86
2023/10/30 00:55:07;;;;;;;;;3.00;1.00;;;;;;;;5066411;28;9577;-87
2023/10/30 00:57:35;;;;;;;;;1.25;1.25;;;;;;;;5068249;28;8867;-89
2023/10/30 01:00:04;;;;;;;;;3.00;3.00;;;;;;;;5062547;28;8885;-86
2023/10/30 01:02:32;;;;;;;;;2.00;2.00;;;;;;;;5060585;28;8949;-87
2023/10/30 01:04:59;;;;;;;;;1.50;1.50;;;;;;;;5066348;28;8851;-84
2023/10/30 01:07:27;;;;;;;;;1.75;1.75;;;;;;;;5068609;28;8955;-83
2023/10/30 01:09:57;;;;;;;;;3.00;3.00;;;;;;;;5070603;28;8839;-88
2023/10/30 01:12:24;;;;;;;;;5.00;2.00;;;;;;;;5056457;28;8858;-85
2023/10/30 01:14:51;;;;;;;;;1.00;1.00;;;;;;;;5068590;28;9000;-84
2023/10/30 01:17:18;;;;;;;;;2.75;2.75;;;;;;;;5069566;28;9568;-82
2023/10/30 01:19:46;;;;;;;;;1.00;1.00;;;;;;;;5069458;28;8874;-83
2023/10/30 01:22:13;;;;;;;;;1.00;1.00;;;;;;;;5067311;28;8874;-83
2023/10/30 01:24:40;;;;;;;;;1.50;1.50;;;;;;;;5068267;28;8839;-83
2023/10/30 01:27:09;;;;;;;;;2.00;2.00;;;;;;;;5067916;28;8847;-82
2023/10/30 01:29:36;;;;;;;;;1.25;1.25;;;;;;;;5069184;28;8873;-85
2023/10/30 01:32:03;;;;;;;;;1.00;1.00;;;;;;;;5069722;28;8942;-82
2023/10/30 01:34:31;;;;;;;;;4.00;3.00;;;;;;;;5070790;28;8851;-82
2023/10/30 01:36:58;;;;;;;;;2.00;1.75;;;;;;;;5070977;28;8973;-81
2023/10/30 01:39:25;;;;;;;;;1.00;1.00;;;;;;;;5071557;28;8851;-83
2023/10/30 01:41:53;;;;;;;;;0.00;0.00;;;;;;;;5073752;28;8842;-83
2023/10/30 01:44:21;;;;;;;;;1.00;1.00;;;;;;;;5075800;28;8870;-85
2023/10/30 01:46:49;;;;;;;;;2.25;1.00;;;;;;;;5077283;28;8941;-89
2023/10/30 01:49:16;;;;;;;;;3.00;1.50;;;;;;;;5077218;28;8854;-88
2023/10/30 01:51:44;;;;;;;;;2.50;2.00;;;;;;;;5072053;28;8981;-85
2023/10/30 01:54:11;;;;;;;;;1.50;1.00;;;;;;;;5072093;28;9002;-90
2023/10/30 01:56:38;;;;;;;;;2.00;2.00;;;;;;;;5070524;28;8849;-89
2023/10/30 01:59:06;;;;;;;;;3.50;2.25;;;;;;;;5068796;28;8855;-88
2023/10/30 02:01:38;;;;;;;;;1.00;1.00;;;;;;;;5070745;28;8794;-88
2023/10/30 02:04:07;;;;;;;;;1.00;1.00;;;;;;;;5058805;28;8854;-88
2023/10/30 02:06:35;;;;;;;;;1.00;1.00;;;;;;;;5069720;28;8859;-91
2023/10/30 02:09:02;;;;;;;;;1.00;1.00;;;;;;;;5071326;28;8839;-91
2023/10/30 02:11:34;;;;;;;;;1.00;1.00;;;;;;;;5071379;28;8865;-89
2023/10/30 02:14:01;;;;;;;;;5.50;2.00;;;;;;;;5072900;28;8854;-87
2023/10/30 02:16:29;;;;;;;;;1.50;1.00;;;;;;;;5076377;28;8854;-85
2023/10/30 02:18:58;;;;;;;;;1.50;1.50;;;;;;;;5076524;28;8974;-85
2023/10/30 02:21:25;;;;;;;;;1.25;1.00;;;;;;;;5071767;28;9589;-87
2023/10/30 02:23:53;;;;;;;;;1.00;1.00;;;;;;;;5071512;28;8989;-92
2023/10/30 02:26:22;;;;;;;;;1.50;1.00;;;;;;;;5070119;28;8875;-89
2023/10/30 02:28:49;;;;;;;;;2.50;1.00;;;;;;;;5069690;28;8855;-91
2023/10/30 02:31:16;;;;;;;;;1.00;1.00;;;;;;;;5069566;28;8775;-88
2023/10/30 02:33:43;;;;;;;;;1.00;1.00;;;;;;;;5058377;28;8847;-90
2023/10/30 02:36:12;;;;;;;;;2.00;1.00;;;;;;;;5071441;28;8823;-86
2023/10/30 02:38:39;;;;;;;;;0.25;0.00;;;;;;;;5071800;28;9748;-88
2023/10/30 02:41:06;;;;;;;;;2.00;1.25;;;;;;;;5073364;28;8898;-89
2023/10/30 02:43:35;;;;;;;;;1.00;1.00;;;;;;;;5072201;28;8904;-89
2023/10/30 02:46:02;;;;;;;;;2.00;1.00;;;;;;;;5075624;28;8859;-88
2023/10/30 02:48:30;;;;;;;;;1.75;1.00;;;;;;;;5075996;28;8867;-85
2023/10/30 02:50:59;;;;;;;;;1.75;1.00;;;;;;;;5073161;28;8993;-88
2023/10/30 02:53:26;;;;;;;;;2.00;0.75;;;;;;;;5070245;28;8875;-86
2023/10/30 02:55:53;;;;;;;;;1.50;1.00;;;;;;;;5070570;28;9756;-84
2023/10/30 02:58:22;;;;;;;;;1.50;1.50;;;;;;;;5069515;28;8867;-89
2023/10/30 03:00:54;;;;;;;;;2.00;2.00;;;;;;;;5069715;28;8795;-84
2023/10/30 03:03:21;;;;;;;;;0.75;0.75;;;;;;;;5069535;28;8861;-89
2023/10/30 03:05:50;;;;;;;;;1.50;1.50;;;;;;;;5068609;28;8859;-82
2023/10/30 03:08:17;;;;;;;;;3.00;1.00;;;;;;;;5069333;28;8859;-86
2023/10/30 03:10:45;;;;;;;;;1.25;1.25;;;;;;;;5068960;28;8887;-84
2023/10/30 03:13:12;;;;;;;;;2.50;1.00;;;;;;;;5068558;28;8850;-81
2023/10/30 03:15:40;;;;;;;;;1.50;1.00;;;;;;;;5070892;28;8851;-82
2023/10/30 03:18:09;;;;;;;;;1.50;1.00;;;;;;;;5071862;28;8891;-82
2023/10/30 03:20:36;;;;;;;;;2.50;1.75;;;;;;;;5072717;28;8888;-81
2023/10/30 03:23:04;;;;;;;;;1.00;1.00;;;;;;;;5074487;28;8862;-81
2023/10/30 03:25:31;;;;;;;;;2.50;2.00;;;;;;;;5073715;28;8885;-81
2023/10/30 03:27:58;;;;;;;;;1.25;0.75;;;;;;;;5065420;28;8991;-80
2023/10/30 03:30:25;;;;;;;;;0.75;0.75;;;;;;;;5066967;28;8731;-82
2023/10/30 03:32:52;;;;;;;;;2.50;1.00;;;;;;;;5063776;28;8851;-87
2023/10/30 03:35:21;;;;;;;;;2.00;1.00;;;;;;;;5068607;28;8865;-88
2023/10/30 03:37:48;;;;;;;;;0.75;0.75;;;;;;;;5069291;28;8881;-84
2023/10/30 03:40:17;;;;;;;;;2.00;2.00;;;;;;;;5068714;28;9006;-85
2023/10/30 03:42:44;;;;;;;;;3.50;1.00;;;;;;;;5060354;28;8841;-85
2023/10/30 03:45:11;;;;;;;;;1.75;1.75;;;;;;;;5056954;28;8823;-85
2023/10/30 03:47:38;;;;;;;;;3.00;1.00;;;;;;;;5072321;28;8843;-88
2023/10/30 03:50:08;;;;;;;;;1.00;1.00;;;;;;;;5072860;28;8885;-86
2023/10/30 03:52:36;;;;;;;;;2.75;1.00;;;;;;;;5069735;28;8871;-84
2023/10/30 03:55:04;;;;;;;;;2.25;1.00;;;;;;;;5069038;28;8888;-84
2023/10/30 03:57:32;;;;;;;;;0.75;0.75;;;;;;;;5069307;28;8855;-80
2023/10/30 03:59:59;;;;;;;;;1.50;1.50;;;;;;;;5067983;28;8863;-88
2023/10/30 04:02:28;;;;;;;;;3.00;2.75;;;;;;;;5067280;28;8799;-89
2023/10/30 04:04:58;;;;;;;;;4.75;1.00;;;;;;;;5066890;28;8870;-85
2023/10/30 04:07:25;;;;;;;;;1.00;1.00;;;;;;;;5068357;28;8867;-90
2023/10/30 04:09:54;;;;;;;;;1.75;1.00;;;;;;;;5068232;28;9772;-88
2023/10/30 04:12:21;;;;;;;;;1.75;1.75;;;;;;;;5067877;28;8843;-89
2023/10/30 04:14:49;;;;;;;;;1.25;1.25;;;;;;;;5072601;28;8941;-86
2023/10/30 04:17:17;;;;;;;;;1.75;1.75;;;;;;;;5072419;28;8951;-84
2023/10/30 04:19:44;;;;;;;;;1.25;1.25;;;;;;;;5070410;28;8872;-86
2023/10/30 04:22:11;;;;;;;;;0.50;0.50;;;;;;;;5067728;28;9009;-85
2023/10/30 04:24:39;;;;;;;;;2.50;1.00;;;;;;;;5068946;28;8969;-88
2023/10/30 04:27:07;;;;;;;;;3.00;2.50;;;;;;;;5067794;28;8910;-84
2023/10/30 04:29:34;;;;;;;;;0.75;0.75;;;;;;;;5068915;28;8870;-87
2023/10/30 04:32:02;;;;;;;;;1.25;1.25;;;;;;;;5065490;28;8815;-87
2023/10/30 04:34:29;;;;;;;;;4.50;1.50;;;;;;;;5069049;28;8857;-82
2023/10/30 04:36:57;;;;;;;;;2.00;2.00;;;;;;;;5067702;28;8851;-84
2023/10/30 04:39:24;;;;;;;;;0.00;0.00;;;;;;;;5060729;28;8837;-83
2023/10/30 04:41:53;;;;;;;;;0.00;0.00;;;;;;;;5052443;28;9400;-86
2023/10/30 04:44:22;;;;;;;;;2.75;1.75;;;;;;;;5053865;28;8860;-85
2023/10/30 04:46:49;;;;;;;;;1.75;1.75;;;;;;;;5052995;28;8846;-87
2023/10/30 04:49:18;;;;;;;;;3.00;1.25;;;;;;;;5069258;28;9629;-87
2023/10/30 04:51:46;;;;;;;;;1.50;1.50;;;;;;;;5065155;28;8873;-82
2023/10/30 04:54:13;;;;;;;;;4.00;1.00;;;;;;;;5058236;28;8889;-87
2023/10/30 04:56:40;;;;;;;;;1.75;1.75;;;;;;;;5067523;28;8854;-82
2023/10/30 04:59:07;;;;;;;;;3.00;1.00;;;;;;;;5067703;28;8851;-84
2023/10/30 05:01:36;;;;;;;;;0.50;0.50;;;;;;;;5067199;28;8815;-82
2023/10/30 05:04:04;;;;;;;;;0.25;0.25;;;;;;;;5068110;28;8842;-79
2023/10/30 05:06:32;;;;;;;;;2.50;2.00;;;;;;;;5067605;28;8862;-89
2023/10/30 05:08:59;;;;;;;;;2.25;2.25;;;;;;;;5074259;28;8867;-85
2023/10/30 05:11:26;;;;;;;;;1.50;1.00;;;;;;;;5071409;28;8893;-84
2023/10/30 05:13:53;;;;;;;;;2.75;1.00;;;;;;;;5070419;28;8867;-82
2023/10/30 05:16:21;;;;;;;;;1.50;0.00;;;;;;;;5072200;28;8851;-84
2023/10/30 05:18:50;;;;;;;;;2.50;2.00;;;;;;;;5073821;28;8863;-83
2023/10/30 05:21:17;;;;;;;;;1.50;1.00;;;;;;;;5073156;28;8885;-79
2023/10/30 05:23:44;;;;;;;;;2.25;0.25;;;;;;;;5071384;28;8992;-82
2023/10/30 05:26:11;;;;;;;;;1.75;1.00;;;;;;;;5070751;28;8961;-84
2023/10/30 05:28:39;;;;;;;;;1.75;1.75;;;;;;;;5070274;28;8854;-79
2023/10/30 05:31:07;;;;;;;;;2.00;0.75;;;;;;;;5069388;28;9550;-81
2023/10/30 05:33:35;;;;;;;;;2.00;1.00;;;;;;;;5069003;28;8855;-78
2023/10/30 05:36:04;;;;;;;;;1.00;1.00;;;;;;;;5070465;28;8842;-84
2023/10/30 05:38:31;;;;;;;;;2.25;1.50;;;;;;;;5070622;28;8865;-84
2023/10/30 05:40:59;;;;;;;;;1.50;1.00;;;;;;;;5070756;28;9667;-86
2023/10/30 05:43:26;;;;;;;;;1.50;0.00;;;;;;;;5072658;28;8867;-84
2023/10/30 05:45:53;;;;;;;;;0.75;0.75;;;;;;;;5073901;28;8850;-85
2023/10/30 05:48:20;;;;;;;;;1.00;1.00;;;;;;;;5069438;28;8841;-85
2023/10/30 05:50:47;;;;;;;;;1.75;0.00;;;;;;;;5070546;28;8862;-81
2023/10/30 05:53:16;;;;;;;;;1.00;1.00;;;;;;;;5071115;28;8850;-82
2023/10/30 05:55:43;;;;;;;;;2.50;1.25;;;;;;;;5070245;28;8839;-82
2023/10/30 05:58:12;;;;;;;;;0.25;0.25;;;;;;;;5070099;28;8885;-81
2023/10/30 06:00:39;;;;;;;;;0.25;0.00;;;;;;;;5069915;28;8789;-80
2023/10/30 06:03:09;;;;;;;;;1.00;0.75;;;;;;;;5069456;28;9578;-84
2023/10/30 06:05:36;;;;;;;;;1.00;0.00;;;;;;;;5070488;28;8862;-79
2023/10/30 06:08:04;;;;;;;;;0.00;0.00;;;;;;;;5057509;28;8851;-81
2023/10/30 06:10:33;;;;;;;;;0.00;0.00;;;;;;;;5070292;28;8850;-76
2023/10/30 06:13:01;;;;;;;;;1.00;1.00;;;;;;;;5069512;28;8948;-80
2023/10/30 06:15:28;;;;;;;;;0.00;0.00;;;;;;;;5070560;28;8851;-76
2023/10/30 06:17:58;;;;;;;;;0.00;0.00;;;;;;;;5070098;28;8855;-84
2023/10/30 06:20:27;;;;;;;;;0.00;0.00;;;;;;;;5069891;28;8870;-76
2023/10/30 06:22:57;;;;;;;;;0.00;0.00;;;;;;;;5069811;28;8941;-76
2023/10/30 06:25:24;;;;;;;;;2.00;0.00;;;;;;;;5068557;28;8857;-75
2023/10/30 06:27:53;;;;;;;;;2.75;0.00;;;;;;;;5068885;28;8874;-76
2023/10/30 06:30:20;;;;;;;;;0.00;0.00;;;;;;;;5068732;28;8866;-75
2023/10/30 06:32:47;;;;;;;;;3.50;1.00;;;;;;;;5069374;28;8859;-76
2023/10/30 06:35:14;;;;;;;;;0.25;0.25;;;;;;;;5067856;28;8862;-76
2023/10/30 06:37:42;;;;;;;;;0.75;0.75;;;;;;;;5068146;28;8862;-77
2023/10/30 06:40:10;;;;;;;;;1.00;1.00;;;;;;;;5067035;28;8834;-76
2023/10/30 06:42:37;;;;;;;;;1.00;1.00;;;;;;;;5069549;28;8859;-76
2023/10/30 06:45:07;;;;;;;;;0.00;0.00;;;;;;;;5068680;28;8860;-77
2023/10/30 06:47:35;;;;;;;;;0.00;0.00;;;;;;;;5069820;28;8903;-76
2023/10/30 06:50:02;;;;;;;;;0.00;0.00;;;;;;;;5068590;28;8866;-76
2023/10/30 06:52:29;;;;;;;;;2.00;0.25;;;;;;;;5068923;28;8846;-76
2023/10/30 06:54:57;;;;;;;;;2.00;0.00;;;;;;;;5070080;28;8855;-76
2023/10/30 06:57:24;;;;;;;;;0.00;0.00;;;;;;;;5071984;28;8958;-76
2023/10/30 06:59:52;;;;;;;;;0.00;0.00;;;;;;;;5066293;28;8846;-76
2023/10/30 07:02:21;;;;;;;;;0.25;0.25;;;;;;;;5062113;28;8857;-76
2023/10/30 07:04:48;;;;;;;;;2.00;0.25;;;;;;;;5070491;28;8853;-75
2023/10/30 07:07:15;;;;;;;;;0.00;0.00;;;;;;;;5062017;28;8861;-76
2023/10/30 07:09:43;;;;;;;;;1.00;0.25;;;;;;;;5067996;28;8855;-76
2023/10/30 07:12:10;;;;;;;;;2.25;0.00;;;;;;;;5068392;28;9656;-76
2023/10/30 07:14:39;;;;;;;;;0.00;0.00;;;;;;;;5068158;28;8854;-77
2023/10/30 07:17:06;;;;;;;;;0.00;0.00;;;;;;;;5068809;28;8904;-76
2023/10/30 07:19:35;;;;;;;;;0.50;0.50;;;;;;;;5067862;28;9656;-76
2023/10/30 07:22:04;;;;;;;;;3.00;1.50;;;;;;;;5070345;28;8869;-76
2023/10/30 07:24:31;;;;;;;;;1.00;1.00;;;;;;;;5071593;28;8862;-76
2023/10/30 07:26:58;;;;;;;;;1.75;1.75;;;;;;;;5066979;28;8879;-76
2023/10/30 07:29:25;;;;;;;;;2.25;1.00;;;;;;;;5067074;28;9652;-76
2023/10/30 07:31:52;;;;;;;;;3.25;0.25;;;;;;;;5066429;28;8807;-76
2023/10/30 07:34:21;;;;;;;;;1.25;1.25;;;;;;;;5055871;28;8854;-76
2023/10/30 07:36:50;;;;;;;;;0.50;0.50;;;;;;;;5066552;28;8850;-77
2023/10/30 07:39:17;;;;;;;;;3.25;2.75;;;;;;;;5067044;28;8858;-76
2023/10/30 07:41:44;;;;;;;;;3.75;3.75;;;;;;;;5064445;28;8981;-76
2023/10/30 07:44:11;;;;;;;;;2.50;2.50;;;;;;;;5068025;28;8834;-76
2023/10/30 07:46:39;;;;;;;;;2.75;2.75;;;;;;;;5066649;28;8890;-76
2023/10/30 07:49:07;;;;;;;;;3.50;2.50;;;;;;;;5067921;28;8854;-76
2023/10/30 07:51:35;;;;;;;;;3.25;2.00;;;;;;;;5067102;28;8849;-76
2023/10/30 07:54:03;;;;;;;;;2.75;1.75;;;;;;;;5067713;28;8974;-76
2023/10/30 07:56:31;;;;;;;;;2.25;2.25;;;;;;;;5066386;28;8838;-76
2023/10/30 07:58:58;;;;;;;;;3.00;3.00;;;;;;;;5067869;28;8867;-76
2023/10/30 08:01:25;;;;;;;;;1.00;1.00;;;;;;;;5067277;28;8799;-75
2023/10/30 08:03:53;;;;;;;;;3.00;1.75;;;;;;;;5067600;28;8865;-76
2023/10/30 08:06:20;;;;;;;;;2.00;2.00;;;;;;;;5062727;28;8853;-76
2023/10/30 08:08:48;;;;;;;;;2.00;2.00;;;;;;;;5058933;28;8898;-76
2023/10/30 08:11:17;;;;;;;;;3.00;3.00;;;;;;;;5066675;28;8835;-76
2023/10/30 08:13:44;;;;;;;;;3.50;3.25;;;;;;;;5067751;28;8847;-76
2023/10/30 08:16:11;;;;;;;;;3.50;3.50;;;;;;;;5065960;28;8858;-75
2023/10/30 08:18:38;;;;;;;;;3.00;3.00;;;;;;;;5066829;28;8851;-76
2023/10/30 08:21:06;;;;;;;;;3.25;3.25;;;;;;;;5066147;28;8863;-76
2023/10/30 08:23:34;;;;;;;;;3.00;3.00;;;;;;;;5066728;28;8851;-76
2023/10/30 08:26:04;;;;;;;;;4.00;4.00;;;;;;;;5067061;28;8874;-75
2023/10/30 08:28:35;;;;;;;;;2.75;2.75;;;;;;;;5067792;28;8847;-76
2023/10/30 08:31:06;;;;;;;;;3.00;3.00;;;;;;;;5067482;28;8799;-75
2023/10/30 08:33:33;;;;;;;;;4.50;3.00;;;;;;;;5067970;28;8879;-75
2023/10/30 08:36:00;;;;;;;;;3.50;3.50;;;;;;;;5067747;28;8893;-75
2023/10/30 08:38:27;;;;;;;;;2.75;2.50;;;;;;;;5066232;28;8974;-75
2023/10/30 08:40:54;;;;;;;;;2.50;1.25;;;;;;;;5069074;28;8854;-75
2023/10/30 08:43:21;;;;;;;;;4.00;2.50;;;;;;;;5069783;28;8843;-75
2023/10/30 08:45:50;;;;;;;;;2.50;2.50;;;;;;;;5070676;28;8975;-75
2023/10/30 08:48:17;;;;;;;;;3.25;2.00;;;;;;;;5071137;28;8885;-75
2023/10/30 08:50:44;;;;;;;;;2.25;2.25;;;;;;;;5073548;28;8908;-75
2023/10/30 08:53:12;;;;;;;;;5.75;5.75;;;;;;;;5074504;28;8838;-76
2023/10/30 08:55:39;;;;;;;;;9.00;9.00;;;;;;;;5073475;28;8854;-76
2023/10/30 08:58:07;;;;;;;;;8.75;7.25;;;;;;;;5069420;28;9612;-76
2023/10/30 09:00:35;;;;;;;;;3.00;3.00;;;;;;;;5071398;28;8763;-76
2023/10/30 09:03:06;;;;;;;;;1.50;1.25;;;;;;;;5070694;28;9614;-76
2023/10/30 09:05:33;;;;;;;;;3.25;2.00;;;;;;;;5071664;28;8839;-76
2023/10/30 09:08:02;;;;;;;;;3.25;2.50;;;;;;;;5056863;28;8912;-76
2023/10/30 09:10:32;;;;;;;;;1.25;1.25;;;;;;;;5070205;28;8863;-76
2023/10/30 09:12:59;;;;;;;;;1.25;1.25;;;;;;;;5070093;28;8843;-75
2023/10/30 09:15:27;;;;;;;;;2.75;2.00;;;;;;;;5070610;28;8885;-76
2023/10/30 09:17:57;;;;;;;;;3.75;3.75;;;;;;;;5068489;28;8862;-76
2023/10/30 09:20:25;;;;;;;;;2.25;2.25;;;;;;;;5071025;28;8861;-76
2023/10/30 09:22:52;;;;;;;;;3.50;3.50;;;;;;;;5070508;28;8863;-76
2023/10/30 09:25:21;;;;;;;;;2.75;2.75;;;;;;;;5070666;28;8850;-76
2023/10/30 09:27:50;;;;;;;;;4.25;4.25;;;;;;;;5070834;28;8889;-76
2023/10/30 09:30:18;;;;;;;;;3.50;3.00;;;;;;;;5069101;28;8866;-76
2023/10/30 09:32:45;;;;;;;;;1.50;1.50;;;;;;;;5070084;28;8870;-76
2023/10/30 09:35:12;;;;;;;;;3.25;2.00;;;;;;;;5069135;28;8872;-76
2023/10/30 09:37:41;;;;;;;;;1.00;1.00;;;;;;;;5069673;28;8850;-76
2023/10/30 09:40:09;;;;;;;;;2.25;1.00;;;;;;;;5068598;28;8867;-76
2023/10/30 09:42:39;;;;;;;;;1.75;1.75;;;;;;;;5069286;28;8851;-76
2023/10/30 09:45:08;;;;;;;;;2.00;2.00;;;;;;;;5069575;28;8841;-76
2023/10/30 09:47:35;;;;;;;;;1.75;0.75;;;;;;;;5072995;28;8846;-76
2023/10/30 09:50:03;;;;;;;;;0.00;0.00;;;;;;;;5072640;28;8926;-76
2023/10/30 09:52:34;;;;;;;;;0.00;0.00;;;;;;;;5070321;28;8854;-76
2023/10/30 09:55:07;;;;;;;;;0.00;0.00;;;;;;;;5069937;28;8887;-76
2023/10/30 09:57:35;;;;;;;;;0.00;0.00;;;;;;;;5069208;28;8910;-76
2023/10/30 10:00:05;;;;;;;;;0.00;0.00;;;;;;;;5069272;28;8882;-76
2023/10/30 10:02:34;;;;;;;;;2.00;2.00;;;;;;;;5069271;28;8853;-76
2023/10/30 10:05:01;;;;;;;;;2.00;2.00;;;;;;;;5068622;28;8882;-76
2023/10/30 10:07:28;;;;;;;;;0.25;0.25;;;;;;;;5056921;28;8849;-76
2023/10/30 10:09:59;;;;;;;;;1.00;0.00;;;;;;;;5068857;28;8859;-76
2023/10/30 10:12:27;;;;;;;;;1.00;0.75;;;;;;;;5069065;28;8977;-76
2023/10/30 10:14:55;;;;;;;;;0.00;0.00;;;;;;;;5058514;28;8866;-76
2023/10/30 10:17:22;;;;;;;;;1.00;0.00;;;;;;;;5069367;28;8854;-76
2023/10/30 10:19:50;;;;;;;;;0.00;0.00;;;;;;;;5073390;28;8858;-76
2023/10/30 10:22:28;;;;;;;;;0.00;0.00;;;;;;;;5068837;28;8865;-75
2023/10/30 10:24:56;;;;;;;;;0.00;0.00;;;;;;;;5070468;28;8851;-76
2023/10/30 10:27:23;;;;;;;;;0.00;0.00;;;;;;;;5069169;28;8854;-76
2023/10/30 10:29:54;;;;;;;;;0.00;0.00;;;;;;;;5071952;28;8985;-77
2023/10/30 10:32:26;;;;;;;;;0.75;0.75;;;;;;;;5070594;28;8815;-76
2023/10/30 10:34:54;;;;;;;;;0.25;0.25;;;;;;;;5072551;28;8851;-76
2023/10/30 10:37:21;;;;;;;;;0.00;0.00;;;;;;;;5071920;28;8881;-76
2023/10/30 10:39:53;;;;;;;;;1.00;1.00;;;;;;;;5072939;28;8866;-76
2023/10/30 10:42:21;;;;;;;;;0.75;0.00;;;;;;;;5069348;28;8834;-76
2023/10/30 10:44:49;;;;;;;;;0.75;0.75;;;;;;;;5068736;28;9675;-77
2023/10/30 10:47:18;;;;;;;;;3.00;2.00;;;;;;;;5068766;28;8869;-77
2023/10/30 10:49:46;;;;;;;;;1.00;1.00;;;;;;;;5068511;28;8854;-77
2023/10/30 10:52:14;;;;;;;;;0.00;0.00;;;;;;;;5068670;28;8993;-78
2023/10/30 10:54:47;;;;;;;;;0.00;0.00;;;;;;;;5068307;28;9816;-76
2023/10/30 10:57:20;;;;;;;;;0.00;0.00;;;;;;;;5068817;28;8867;-77
2023/10/30 10:59:48;;;;;;;;;1.00;1.00;;;;;;;;5067513;28;8843;-76
2023/10/30 11:02:21;;;;;;;;;15.75;15.75;;;;;;;;5067634;28;8884;-75
2023/10/30 11:04:50;;;;;;;;;8.00;7.00;;;;;;;;5068457;28;9668;-78
2023/10/30 11:07:24;;;;;;;;;6.00;5.75;;;;;;;;5057671;28;8971;-77
2023/10/30 11:09:57;;;;;;;;;2.50;2.25;;;;;;;;5068221;28;9779;-76
2023/10/30 11:12:39;;;;;;;;;0.00;0.00;;;;;;;;5068741;28;8858;-75
2023/10/30 11:15:13;;;;;;;;;0.00;0.00;;;;;;;;5057932;28;8881;-76
2023/10/30 11:17:45;;;;;;;;;0.00;0.00;;;;;;;;5068272;28;8878;-75
2023/10/30 11:20:12;;;;;;;;;0.00;0.00;;;;;;;;5068940;28;9072;-76
2023/10/30 11:22:40;;;;;;;;;1.75;0.50;;;;;;;;5067958;28;8839;-74
2023/10/30 11:25:20;;;;;;;;;2.00;2.00;;;;;;;;5068441;28;8928;-77
2023/10/30 11:27:47;;;;;;;;;3.50;3.50;;;;;;;;5067073;28;8862;-76
2023/10/30 11:30:16;;;;;;;;;5.50;4.00;;;;;;;;5066902;28;8862;-73
2023/10/30 11:32:56;;;;;;;;;1.00;1.00;;;;;;;;5054809;28;8885;-75
2023/10/30 11:35:24;;;;;;;;;2.00;2.00;;;;;;;;5066386;28;8855;-73
2023/10/30 11:37:55;;;;;;;;;1.00;1.00;;;;;;;;5066930;28;8859;-72
2023/10/30 11:40:22;;;;;;;;;1.00;1.00;;;;;;;;5067000;28;8884;-76
2023/10/30 11:42:57;;;;;;;;;0.00;0.00;;;;;;;;5068468;28;8835;-74
2023/10/30 11:45:25;;;;;;;;;1.50;1.50;;;;;;;;5067602;28;8869;-73
2023/10/30 11:48:06;;;;;;;;;2.50;2.25;;;;;;;;5067575;28;8878;-76
2023/10/30 11:50:35;;;;;;;;;1.00;1.00;;;;;;;;5055418;28;8886;-73
2023/10/30 11:53:09;;;;;;;;;2.50;1.50;;;;;;;;5067223;28;8854;-77
2023/10/30 11:55:37;;;;;;;;;0.25;0.25;;;;;;;;5068163;28;8860;-72
2023/10/30 11:58:05;;;;;;;;;2.00;0.75;;;;;;;;5067194;28;8847;-74
2023/10/30 12:00:33;;;;;;;;;0.00;0.00;;;;;;;;5066920;28;8775;-73
2023/10/30 12:03:05;;;;;;;;;2.50;2.00;;;;;;;;5064792;28;8992;-80
2023/10/30 12:05:32;;;;;;;;;22.50;17.75;;;;;;;;5067641;28;8870;-78
2023/10/30 12:07:59;;;;;;;;;2.75;1.75;;;;;;;;5066291;28;8854;-74
2023/10/30 12:10:27;;;;;;;;;1.75;1.75;;;;;;;;5069108;28;8869;-74
2023/10/30 12:12:58;;;;;;;;;2.00;2.00;;;;;;;;5066992;28;8879;-74
2023/10/30 12:15:26;;;;;;;;;1.00;1.00;;;;;;;;5070036;28;9017;-74
2023/10/30 12:17:54;;;;;;;;;2.00;2.00;;;;;;;;5068515;28;8904;-74
2023/10/30 12:20:22;;;;;;;;;1.75;1.00;;;;;;;;5069861;28;8859;-76
2023/10/30 12:22:50;;;;;;;;;0.75;0.75;;;;;;;;5068951;28;8858;-77
2023/10/30 12:25:17;;;;;;;;;1.00;1.00;;;;;;;;5070304;28;9028;-79
2023/10/30 12:27:47;;;;;;;;;9.50;9.50;;;;;;;;5066610;28;9649;-76
2023/10/30 12:30:16;;;;;;;;;7.00;6.50;;;;;;;;5065517;28;8863;-75
2023/10/30 12:32:44;;;;;;;;;18.00;17.00;;;;;;;;5056190;28;8858;-78
2023/10/30 12:35:12;;;;;;;;;7.50;7.50;;;;;;;;5065438;28;8889;-75
2023/10/30 12:37:41;;;;;;;;;5.00;5.00;;;;;;;;5068143;28;8846;-79
2023/10/30 12:40:09;;;;;;;;;3.00;3.00;;;;;;;;5052285;28;8849;-79
2023/10/30 12:42:38;;;;;;;;;2.75;2.00;;;;;;;;5057583;28;8851;-76
2023/10/30 12:45:12;;;;;;;;;0.50;0.50;;;;;;;;5063777;28;8869;-80
2023/10/30 12:47:40;;;;;;;;;6.25;6.25;;;;;;;;5066271;28;8924;-78
2023/10/30 12:50:08;;;;;;;;;10.75;10.75;;;;;;;;5064210;28;8855;-79
2023/10/30 12:52:35;;;;;;;;;6.00;5.50;;;;;;;;5067410;28;8887;-76
2023/10/30 12:55:04;;;;;;;;;6.50;4.50;;;;;;;;5064730;28;8883;-79
2023/10/30 12:57:32;;;;;;;;;1.00;1.00;;;;;;;;5065589;28;9938;-77
2023/10/30 12:59:59;;;;;;;;;1.00;1.00;;;;;;;;5065815;28;8850;-76
2023/10/30 13:02:27;;;;;;;;;1.00;1.00;;;;;;;;5066669;28;8933;-77
2023/10/30 13:04:54;;;;;;;;;1.00;1.00;;;;;;;;5066357;28;8839;-76
2023/10/30 13:07:21;;;;;;;;;1.00;1.00;;;;;;;;5054822;28;8861;-77
2023/10/30 13:09:48;;;;;;;;;1.25;1.25;;;;;;;;5064429;28;8831;-76
2023/10/30 13:12:17;;;;;;;;;1.00;1.00;;;;;;;;5066997;28;8897;-78
2023/10/30 13:14:44;;;;;;;;;1.00;1.00;;;;;;;;5066291;28;9010;-77
2023/10/30 13:17:11;;;;;;;;;0.25;0.25;;;;;;;;5066824;28;8869;-76
2023/10/30 13:19:38;;;;;;;;;0.25;0.25;;;;;;;;5066905;28;8851;-79
2023/10/30 13:22:06;;;;;;;;;0.00;0.00;;;;;;;;5065958;28;8867;-77
2023/10/30 13:24:33;;;;;;;;;2.75;1.00;;;;;;;;5066748;28;8871;-76
2023/10/30 13:27:00;;;;;;;;;0.00;0.00;;;;;;;;5066469;28;8854;-78
2023/10/30 13:29:31;;;;;;;;;0.75;0.75;;;;;;;;5066348;28;8851;-75
2023/10/30 13:31:59;;;;;;;;;1.25;0.75;;;;;;;;5054408;28;8836;-76
2023/10/30 13:34:26;;;;;;;;;1.00;1.00;;;;;;;;5067149;28;8827;-75
2023/10/30 13:36:53;;;;;;;;;1.00;1.00;;;;;;;;5067633;28;8877;-77
2023/10/30 13:39:20;;;;;;;;;1.00;1.00;;;;;;;;5069831;28;8961;-76
2023/10/30 13:41:48;;;;;;;;;1.00;1.00;;;;;;;;5070209;28;8865;-78
2023/10/30 13:44:17;;;;;;;;;2.00;2.00;;;;;;;;5070351;28;8847;-74
2023/10/30 13:46:45;;;;;;;;;2.00;2.00;;;;;;;;5070559;28;8877;-76
2023/10/30 13:49:15;;;;;;;;;5.00;4.00;;;;;;;;5070247;28;8835;-76
2023/10/30 13:51:42;;;;;;;;;3.00;3.00;;;;;;;;5070678;28;8843;-75
2023/10/30 13:54:10;;;;;;;;;4.00;4.00;;;;;;;;5070140;28;8847;-75
2023/10/30 13:56:37;;;;;;;;;4.00;4.00;;;;;;;;5069702;28;8882;-76
2023/10/30 13:59:04;;;;;;;;;3.25;3.25;;;;;;;;5071392;28;8932;-75
2023/10/30 14:01:31;;;;;;;;;4.75;4.75;;;;;;;;5071833;28;8817;-75
2023/10/30 14:04:00;;;;;;;;;5.00;5.00;;;;;;;;5073301;28;8971;-75
2023/10/30 14:06:27;;;;;;;;;5.00;5.00;;;;;;;;5071791;28;8867;-75
2023/10/30 14:08:54;;;;;;;;;5.00;5.00;;;;;;;;5073356;28;8878;-75
2023/10/30 14:11:23;;;;;;;;;7.00;7.00;;;;;;;;5068044;28;8936;-75
2023/10/30 14:13:52;;;;;;;;;6.00;6.00;;;;;;;;5053686;28;8872;-76
2023/10/30 14:16:19;;;;;;;;;5.25;5.25;;;;;;;;5056582;28;9636;-77
2023/10/30 14:18:47;;;;;;;;;6.50;6.50;;;;;;;;5053231;28;8888;-78
2023/10/30 14:21:16;;;;;;;;;7.75;6.75;;;;;;;;5058234;28;8839;-77
2023/10/30 14:23:43;;;;;;;;;5.75;5.75;;;;;;;;5054275;28;8915;-77
2023/10/30 14:26:11;;;;;;;;;3.75;3.75;;;;;;;;5065658;28;8867;-76
2023/10/30 14:28:38;;;;;;;;;4.25;4.25;;;;;;;;5052692;28;8861;-77
2023/10/30 14:31:05;;;;;;;;;3.50;3.50;;;;;;;;5067990;28;8811;-77
2023/10/30 14:33:33;;;;;;;;;2.00;2.00;;;;;;;;5054664;28;8891;-77
2023/10/30 14:36:00;;;;;;;;;3.50;3.50;;;;;;;;5056700;28;8872;-77
2023/10/30 14:38:29;;;;;;;;;2.00;2.00;;;;;;;;5062259;28;9643;-77
2023/10/30 14:40:56;;;;;;;;;1.00;1.00;;;;;;;;5064551;28;8857;-77
2023/10/30 14:43:23;;;;;;;;;2.00;2.00;;;;;;;;5054803;28;8871;-77
2023/10/30 14:45:51;;;;;;;;;1.50;1.50;;;;;;;;5059792;28;8843;-76
2023/10/30 14:48:18;;;;;;;;;2.00;2.00;;;;;;;;5057578;28;8865;-78
2023/10/30 14:50:46;;;;;;;;;0.33;0.33;;;;;;;;5052928;28;8879;-77
2023/10/30 14:53:13;;;;;;;;;1.00;1.00;;;;;;;;5055861;28;8985;-76
2023/10/30 14:55:42;;;;;;;;;0.00;0.00;;;;;;;;5060514;28;8855;-76
2023/10/30 14:58:09;;;;;;;;;0.00;0.00;;;;;;;;5069122;28;8847;-77
2023/10/30 15:00:36;;;;;;;;;0.00;0.00;;;;;;;;5054154;28;8803;-78